Time;durP1;ratioP1;P1;durP2;ratioP2;P2;SDS_P1;SDS_P2;PMS_P1;PMS_P2;Temp;Humidity;BMP_temperature;BMP_pressure;BME280_temperature;BME280_humidity;BME280_pressure;Samples;Min_cycle;Max_cycle;Signal;HPM_P1;HPM_P2
2023/07/25 00:00:29;;;;;;;7.57;3.10;;;13.90;99.90;;;;;;5090434;28;20404;-71
2023/07/25 00:02:54;;;;;;;9.10;3.20;;;13.80;99.90;;;;;;5090865;28;20788;-71
2023/07/25 00:05:20;;;;;;;10.20;3.10;;;13.80;99.90;;;;;;5090798;28;20895;-71
2023/07/25 00:07:46;;;;;;;9.15;3.17;;;13.80;99.90;;;;;;5091032;28;20490;-71
2023/07/25 00:10:11;;;;;;;9.67;3.43;;;13.80;99.90;;;;;;5090112;28;20394;-71
2023/07/25 00:12:37;;;;;;;9.63;3.50;;;13.80;99.90;;;;;;5091126;28;20394;-71
2023/07/25 00:15:05;;;;;;;8.25;3.50;;;13.80;99.90;;;;;;5090933;28;20386;-71
2023/07/25 00:17:31;;;;;;;10.45;3.65;;;13.80;99.90;;;;;;5073014;28;20406;-71
2023/07/25 00:19:57;;;;;;;7.17;3.33;;;13.80;99.90;;;;;;5090420;28;21801;-71
2023/07/25 00:22:22;;;;;;;8.60;3.20;;;13.80;99.90;;;;;;5090844;28;20522;-71
2023/07/25 00:24:49;;;;;;;9.35;3.40;;;13.70;99.90;;;;;;5072396;28;20442;-71
2023/07/25 00:27:15;;;;;;;9.23;3.13;;;13.70;99.90;;;;;;5090911;28;20489;-72
2023/07/25 00:29:41;;;;;;;13.33;3.67;;;13.60;99.90;;;;;;5090140;28;20493;-71
2023/07/25 00:32:07;;;;;;;11.13;3.42;;;13.60;99.90;;;;;;5090333;28;20390;-71
2023/07/25 00:34:32;;;;;;;6.70;3.10;;;13.50;99.90;;;;;;5055560;28;21022;-72
2023/07/25 00:36:58;;;;;;;6.30;3.33;;;13.50;99.90;;;;;;5090294;28;20459;-71
2023/07/25 00:39:23;;;;;;;9.80;4.05;;;13.50;99.90;;;;;;5089792;28;20421;-71
2023/07/25 00:41:49;;;;;;;11.60;3.77;;;13.50;99.90;;;;;;5078939;28;20933;-71
2023/07/25 00:44:15;;;;;;;12.93;3.77;;;13.40;99.90;;;;;;5087692;28;20411;-71
2023/07/25 00:46:41;;;;;;;10.80;3.85;;;13.40;99.90;;;;;;5071697;28;21111;-71
2023/07/25 00:49:07;;;;;;;9.77;3.35;;;13.40;99.90;;;;;;5089665;28;20411;-71
2023/07/25 00:51:34;;;;;;;9.90;3.50;;;13.30;99.90;;;;;;5090607;28;20467;-71
2023/07/25 00:54:00;;;;;;;9.85;3.75;;;13.30;99.90;;;;;;5088750;28;20475;-71
2023/07/25 00:56:26;;;;;;;9.82;3.53;;;13.30;99.90;;;;;;5088700;28;20727;-71
2023/07/25 00:58:52;;;;;;;8.35;3.33;;;13.30;99.90;;;;;;5089089;28;20406;-71
2023/07/25 01:01:18;;;;;;;9.23;3.43;;;13.30;99.90;;;;;;5089025;28;20487;-71
2023/07/25 01:03:43;;;;;;;10.98;3.60;;;13.30;99.90;;;;;;5088734;28;20417;-71
2023/07/25 01:06:13;;;;;;;10.85;3.60;;;13.20;99.90;;;;;;5088457;28;20402;-71
2023/07/25 01:08:54;;;;;;;8.75;3.15;;;13.20;99.90;;;;;;5088655;28;20405;-71
2023/07/25 01:11:20;;;;;;;9.40;3.50;;;13.20;99.90;;;;;;5084059;28;20447;-71
2023/07/25 01:13:46;;;;;;;9.10;3.30;;;13.20;99.90;;;;;;5088798;28;20406;-71
2023/07/25 01:16:22;;;;;;;9.45;3.30;;;13.10;99.90;;;;;;5088816;28;20497;-71
2023/07/25 01:18:49;;;;;;;6.10;3.03;;;13.10;99.90;;;;;;5089003;28;20398;-72
2023/07/25 01:21:14;;;;;;;8.10;3.10;;;13.10;99.90;;;;;;5089391;28;20911;-71
2023/07/25 01:23:41;;;;;;;7.28;2.92;;;13.10;99.90;;;;;;5089476;28;20443;-71
2023/07/25 01:26:07;;;;;;;9.27;3.20;;;13.00;99.90;;;;;;5089593;28;20390;-71
2023/07/25 01:28:32;;;;;;;10.73;3.28;;;13.00;99.90;;;;;;5089083;28;20420;-71
2023/07/25 01:30:58;;;;;;;7.17;3.00;;;13.00;99.90;;;;;;5088788;28;20505;-71
2023/07/25 01:33:24;;;;;;;8.57;3.10;;;13.00;55.50;;;;;;5089283;28;20834;-71
2023/07/25 01:35:49;;;;;;;10.80;3.27;;;13.00;55.30;;;;;;5089059;28;20404;-71
2023/07/25 01:38:15;;;;;;;6.82;2.97;;;13.00;56.30;;;;;;5088865;28;20729;-71
2023/07/25 01:40:41;;;;;;;7.90;3.17;;;13.00;56.30;;;;;;5089250;28;20469;-71
2023/07/25 01:43:07;;;;;;;7.87;3.30;;;13.00;56.50;;;;;;5088510;28;20414;-71
2023/07/25 01:45:33;;;;;;;7.00;2.97;;;12.90;56.50;;;;;;5089167;28;20405;-71
2023/07/25 01:47:59;;;;;;;11.38;3.50;;;12.90;56.90;;;;;;5088534;28;20784;-71
2023/07/25 01:50:28;;;;;;;9.32;3.17;;;12.90;57.90;;;;;;5089241;28;20398;-71
2023/07/25 01:52:54;;;;;;;9.48;3.58;;;13.00;58.40;;;;;;5069717;28;20488;-71
2023/07/25 01:55:21;;;;;;;8.35;3.15;;;13.00;66.90;;;;;;5070599;28;20414;-71
2023/07/25 01:57:46;;;;;;;9.35;3.05;;;13.00;99.90;;;;;;5088872;28;20394;-71
2023/07/25 02:00:12;;;;;;;8.57;3.00;;;13.00;99.90;;;;;;5088339;28;20391;-71
2023/07/25 02:02:38;;;;;;;9.15;3.25;;;12.90;99.90;;;;;;5088287;28;20920;-71
2023/07/25 02:05:04;;;;;;;10.90;3.50;;;12.90;99.90;;;;;;5088211;28;20393;-71
2023/07/25 02:07:30;;;;;;;8.57;3.23;;;13.00;99.90;;;;;;5088790;28;20399;-71
2023/07/25 02:09:56;;;;;;;8.75;3.10;;;13.00;99.90;;;;;;5088270;28;20398;-71
2023/07/25 02:12:21;;;;;;;8.63;3.27;;;13.00;99.90;;;;;;5088578;28;20406;-71
2023/07/25 02:14:47;;;;;;;8.07;3.03;;;13.10;99.90;;;;;;5088222;28;20400;-71
2023/07/25 02:17:13;;;;;;;9.75;3.47;;;13.10;99.90;;;;;;5088288;28;20444;-71
2023/07/25 02:19:38;;;;;;;8.90;3.13;;;13.20;99.90;;;;;;5087437;28;20405;-71
2023/07/25 02:22:05;;;;;;;9.47;3.33;;;13.20;99.90;;;;;;5087267;28;20432;-72
2023/07/25 02:24:30;;;;;;;7.60;3.10;;;13.30;99.90;;;;;;5087589;28;20455;-71
2023/07/25 02:26:56;;;;;;;9.37;3.20;;;13.30;99.90;;;;;;5087407;28;20398;-71
2023/07/25 02:29:22;;;;;;;8.10;3.20;;;13.30;99.90;;;;;;5087390;28;20806;-71
2023/07/25 02:31:47;;;;;;;10.80;3.23;;;13.30;99.90;;;;;;5086832;28;20766;-71
2023/07/25 02:34:15;;;;;;;7.25;3.08;;;13.30;99.90;;;;;;5087367;28;20402;-71
2023/07/25 02:36:41;;;;;;;10.48;3.38;;;13.30;99.90;;;;;;5087318;28;20406;-71
2023/07/25 02:39:08;;;;;;;11.33;3.57;;;13.30;99.90;;;;;;5087113;28;20405;-71
2023/07/25 02:41:34;;;;;;;9.65;3.20;;;13.40;99.90;;;;;;5086836;28;21234;-71
2023/07/25 02:43:59;;;;;;;7.43;3.10;;;13.40;99.90;;;;;;5088049;28;20413;-71
2023/07/25 02:46:25;;;;;;;9.37;3.30;;;13.40;99.90;;;;;;5088083;28;20444;-71
2023/07/25 02:48:51;;;;;;;8.02;3.03;;;13.40;99.90;;;;;;5087877;28;20398;-71
2023/07/25 02:51:16;;;;;;;9.70;3.03;;;13.40;99.90;;;;;;5087601;28;20768;-72
2023/07/25 02:53:42;;;;;;;7.50;2.90;;;13.40;99.90;;;;;;5088286;28;20398;-71
2023/07/25 02:56:07;;;;;;;9.33;3.33;;;13.40;99.90;;;;;;5083831;28;20406;-71
2023/07/25 02:58:33;;;;;;;9.90;3.33;;;13.50;99.90;;;;;;5087600;28;20401;-71
2023/07/25 03:00:59;;;;;;;11.18;3.00;;;13.50;99.90;;;;;;5087138;28;20434;-71
2023/07/25 03:03:25;;;;;;;9.73;2.85;;;13.60;99.90;;;;;;5069506;28;20452;-71
2023/07/25 03:05:50;;;;;;;9.83;3.10;;;13.60;99.90;;;;;;5087572;28;20394;-72
2023/07/25 03:08:17;;;;;;;7.57;2.53;;;13.60;99.90;;;;;;5069830;28;20430;-71
2023/07/25 03:10:42;;;;;;;10.68;2.40;;;13.70;99.90;;;;;;5087140;28;20397;-71
2023/07/25 03:13:08;;;;;;;8.10;2.22;;;13.70;99.90;;;;;;5086996;28;20952;-71
2023/07/25 03:15:34;;;;;;;10.47;2.70;;;13.70;99.90;;;;;;5087215;28;20394;-71
2023/07/25 03:17:59;;;;;;;8.00;2.38;;;13.80;99.90;;;;;;5086767;28;20438;-71
2023/07/25 03:20:25;;;;;;;7.93;2.17;;;13.80;99.90;;;;;;5073567;28;20397;-72
2023/07/25 03:22:50;;;;;;;6.63;2.00;;;13.80;99.90;;;;;;5086538;28;20791;-71
2023/07/25 03:25:16;;;;;;;7.35;2.17;;;13.80;99.90;;;;;;5086370;28;20525;-71
2023/07/25 03:27:42;;;;;;;8.27;2.58;;;13.90;99.90;;;;;;5068478;28;20807;-72
2023/07/25 03:30:08;;;;;;;7.20;2.20;;;13.90;99.90;;;;;;5075928;28;20456;-71
2023/07/25 03:32:33;;;;;;;7.45;2.00;;;13.90;99.90;;;;;;5091989;28;20406;-72
2023/07/25 03:34:59;;;;;;;8.17;2.10;;;13.90;99.90;;;;;;5091125;28;20763;-71
2023/07/25 03:37:24;;;;;;;8.32;2.05;;;13.90;99.90;;;;;;5091487;28;20405;-72
2023/07/25 03:39:50;;;;;;;7.87;2.17;;;14.00;99.90;;;;;;5091353;28;20400;-71
2023/07/25 03:42:15;;;;;;;8.90;2.30;;;14.00;99.90;;;;;;5069633;28;20439;-72
2023/07/25 03:44:41;;;;;;;5.65;1.88;;;14.00;99.90;;;;;;5070260;28;20509;-72
2023/07/25 03:47:07;;;;;;;9.43;2.50;;;14.00;99.90;;;;;;5070954;28;21208;-71
2023/07/25 03:49:32;;;;;;;10.00;1.98;;;14.10;99.90;;;;;;5071033;28;20449;-71
2023/07/25 03:51:58;;;;;;;6.23;2.20;;;14.10;99.90;;;;;;5070142;28;20772;-71
2023/07/25 03:54:25;;;;;;;8.10;1.98;;;14.10;99.90;;;;;;5070771;28;20400;-71
2023/07/25 03:56:51;;;;;;;7.63;2.30;;;14.10;99.90;;;;;;5071033;28;20396;-71
2023/07/25 03:59:17;;;;;;;8.57;2.70;;;14.10;99.90;;;;;;5070574;28;20561;-72
2023/07/25 04:01:43;;;;;;;9.30;2.17;;;14.10;99.90;;;;;;5070241;28;20431;-72
2023/07/25 04:04:09;;;;;;;8.07;2.10;;;14.20;99.90;;;;;;5070191;28;20820;-71
2023/07/25 04:06:34;;;;;;;12.15;2.22;;;14.10;99.90;;;;;;5062110;28;20478;-71
2023/07/25 04:09:00;;;;;;;11.53;2.40;;;14.20;99.90;;;;;;5070586;28;20481;-71
2023/07/25 04:11:26;;;;;;;9.40;2.72;;;14.20;99.90;;;;;;5071047;28;20399;-71
2023/07/25 04:13:51;;;;;;;10.90;2.47;;;14.20;99.90;;;;;;5069511;28;20927;-71
2023/07/25 04:16:17;;;;;;;10.05;2.20;;;14.20;99.90;;;;;;5070458;28;20431;-71
2023/07/25 04:18:42;;;;;;;7.47;2.00;;;14.20;99.90;;;;;;5070450;28;20414;-71
2023/07/25 04:21:08;;;;;;;10.30;2.40;;;14.20;99.90;;;;;;5070416;28;20439;-71
2023/07/25 04:23:33;;;;;;;11.30;2.13;;;14.20;99.90;;;;;;5070163;28;20408;-71
2023/07/25 04:25:59;;;;;;;7.60;1.90;;;14.20;99.90;;;;;;5070311;28;21228;-71
2023/07/25 04:28:25;;;;;;;9.48;1.92;;;14.30;99.90;;;;;;5070252;28;20396;-71
2023/07/25 04:30:50;;;;;;;6.10;1.80;;;14.30;99.90;;;;;;5070598;28;20414;-72
2023/07/25 04:33:16;;;;;;;9.77;1.98;;;14.30;99.90;;;;;;5070415;28;20920;-71
2023/07/25 04:35:45;;;;;;;10.10;1.93;;;14.30;99.90;;;;;;5069925;28;20486;-71
2023/07/25 04:38:11;;;;;;;6.53;1.88;;;14.30;99.90;;;;;;5070024;28;20928;-71
2023/07/25 04:40:38;;;;;;;7.18;2.05;;;14.30;99.90;;;;;;5069470;28;20444;-71
2023/07/25 04:43:03;;;;;;;7.68;1.85;;;14.20;99.90;;;;;;5079522;28;20417;-71
2023/07/25 04:45:29;;;;;;;10.07;2.07;;;14.20;99.90;;;;;;5089851;28;20406;-71
2023/07/25 04:47:54;;;;;;;8.93;2.23;;;14.20;99.90;;;;;;5089770;28;20426;-71
2023/07/25 04:50:20;;;;;;;8.70;1.60;;;14.20;99.90;;;;;;5090003;28;20480;-71
2023/07/25 04:52:46;;;;;;;7.47;1.70;;;14.20;99.90;;;;;;5089748;28;21206;-71
2023/07/25 04:55:11;;;;;;;5.63;1.75;;;14.20;99.90;;;;;;5071982;28;20397;-72
2023/07/25 04:57:37;;;;;;;8.33;1.90;;;14.20;99.90;;;;;;5083750;28;20434;-71
2023/07/25 05:00:04;;;;;;;7.70;2.03;;;14.20;99.90;;;;;;5089919;28;20394;-71
2023/07/25 05:02:30;;;;;;;8.43;1.80;;;14.20;99.90;;;;;;5089852;28;20426;-71
2023/07/25 05:04:55;;;;;;;8.73;2.07;;;14.20;99.90;;;;;;5089884;28;20451;-71
2023/07/25 05:07:21;;;;;;;8.38;1.98;;;14.10;99.90;;;;;;5071141;28;20405;-71
2023/07/25 05:09:46;;;;;;;7.33;2.17;;;14.20;99.90;;;;;;5089531;28;20767;-71
2023/07/25 05:12:13;;;;;;;6.57;1.63;;;14.20;99.90;;;;;;5089786;28;20398;-71
2023/07/25 05:14:39;;;;;;;6.30;1.95;;;14.20;99.90;;;;;;5071652;28;20406;-72
2023/07/25 05:17:05;;;;;;;8.00;1.70;;;14.20;99.90;;;;;;5089305;28;20409;-70
2023/07/25 05:19:31;;;;;;;10.23;1.77;;;14.20;99.90;;;;;;5089580;28;20759;-70
2023/07/25 05:21:56;;;;;;;7.10;1.80;;;14.30;99.90;;;;;;5081458;28;20933;-70
2023/07/25 05:24:23;;;;;;;7.93;1.70;;;14.30;99.90;;;;;;5089092;28;20402;-71
2023/07/25 05:26:49;;;;;;;5.80;1.90;;;14.40;99.90;;;;;;5087791;28;20413;-71
2023/07/25 05:29:15;;;;;;;8.35;1.65;;;14.60;99.90;;;;;;5089129;28;20432;-71
2023/07/25 05:31:40;;;;;;;9.13;1.92;;;14.70;99.90;;;;;;5088112;28;20409;-71
2023/07/25 05:34:06;;;;;;;10.67;1.50;;;14.80;99.90;;;;;;5088431;28;20982;-71
2023/07/25 05:36:32;;;;;;;7.47;1.30;;;15.00;99.90;;;;;;5088561;28;20394;-71
2023/07/25 05:38:57;;;;;;;6.17;1.50;;;15.10;99.90;;;;;;5089058;28;20424;-71
2023/07/25 05:41:23;;;;;;;4.75;1.25;;;15.20;99.90;;;;;;5089109;28;20773;-71
2023/07/25 05:43:49;;;;;;;5.87;1.40;;;15.30;99.90;;;;;;5088900;28;20402;-71
2023/07/25 05:46:14;;;;;;;10.35;1.35;;;15.40;99.90;;;;;;5070700;28;20421;-71
2023/07/25 05:48:40;;;;;;;5.90;1.27;;;15.50;99.90;;;;;;5089361;28;20397;-72
2023/07/25 05:51:05;;;;;;;7.97;1.30;;;15.50;99.90;;;;;;5088467;28;20402;-71
2023/07/25 05:53:31;;;;;;;7.28;1.77;;;15.60;99.90;;;;;;5071052;28;20410;-72
2023/07/25 05:55:57;;;;;;;5.77;1.30;;;15.60;99.90;;;;;;5088697;28;20402;-72
2023/07/25 05:58:22;;;;;;;6.70;1.50;;;15.50;99.90;;;;;;5089233;28;20593;-71
2023/07/25 06:00:49;;;;;;;6.00;1.20;;;15.40;99.90;;;;;;5088981;28;20414;-71
2023/07/25 06:03:15;;;;;;;5.53;1.38;;;15.30;99.90;;;;;;5088940;28;20794;-71
2023/07/25 06:05:41;;;;;;;7.53;1.88;;;15.30;99.90;;;;;;5088334;28;20403;-71
2023/07/25 06:08:08;;;;;;;6.63;1.30;;;15.20;99.90;;;;;;5088856;28;20398;-71
2023/07/25 06:10:35;;;;;;;8.32;1.45;;;15.20;99.90;;;;;;5088810;28;20409;-71
2023/07/25 06:13:03;;;;;;;7.20;1.50;;;15.10;99.90;;;;;;5088752;28;20760;-72
2023/07/25 06:15:29;;;;;;;6.65;1.05;;;15.20;99.90;;;;;;5088828;28;20405;-72
2023/07/25 06:17:55;;;;;;;10.97;2.10;;;15.20;99.90;;;;;;5088389;28;20402;-72
2023/07/25 06:20:21;;;;;;;6.13;1.52;;;15.20;99.90;;;;;;5088458;28;20764;-72
2023/07/25 06:22:48;;;;;;;8.60;1.80;;;15.30;99.90;;;;;;5088234;28;20422;-71
2023/07/25 06:25:15;;;;;;;5.93;1.50;;;15.40;99.90;;;;;;5088219;28;20895;-71
2023/07/25 06:27:41;;;;;;;6.10;1.10;;;15.50;99.90;;;;;;5088347;28;20445;-72
2023/07/25 06:30:07;;;;;;;7.03;1.13;;;15.50;99.90;;;;;;5088566;28;20426;-72
2023/07/25 06:32:33;;;;;;;6.25;1.15;;;15.60;99.90;;;;;;5088127;28;20386;-71
2023/07/25 06:34:58;;;;;;;5.63;1.00;;;15.70;99.90;;;;;;5087909;28;20485;-72
2023/07/25 06:37:24;;;;;;;6.25;1.08;;;15.70;99.90;;;;;;5088606;28;20398;-71
2023/07/25 06:39:49;;;;;;;5.10;0.83;;;15.70;99.90;;;;;;5087968;28;20477;-71
2023/07/25 06:42:15;;;;;;;8.13;1.23;;;15.70;99.90;;;;;;5087446;28;20513;-72
2023/07/25 06:44:40;;;;;;;7.13;1.10;;;15.70;99.90;;;;;;5088183;28;20398;-72
2023/07/25 06:47:06;;;;;;;8.70;1.03;;;15.80;99.90;;;;;;5069631;28;20826;-72
2023/07/25 06:49:32;;;;;;;7.30;1.10;;;15.80;99.90;;;;;;5087939;28;20899;-72
2023/07/25 06:52:00;;;;;;;5.97;1.20;;;15.90;99.90;;;;;;5087536;28;20406;-72
2023/07/25 06:54:25;;;;;;;5.18;1.30;;;15.90;99.90;;;;;;5087927;28;20441;-72
2023/07/25 06:56:51;;;;;;;4.55;0.80;;;16.00;99.90;;;;;;5087560;28;20835;-72
2023/07/25 06:59:17;;;;;;;6.40;1.17;;;16.10;99.90;;;;;;5069766;28;20406;-72
2023/07/25 07:01:42;;;;;;;6.30;0.90;;;16.10;99.90;;;;;;5087714;28;20792;-72
2023/07/25 07:04:08;;;;;;;4.20;1.00;;;16.20;99.90;;;;;;5086980;28;20409;-72
2023/07/25 07:06:33;;;;;;;4.97;0.80;;;16.30;99.90;;;;;;5087538;28;20802;-72
2023/07/25 07:08:59;;;;;;;6.28;1.08;;;16.40;99.90;;;;;;5087463;28;20402;-72
2023/07/25 07:11:25;;;;;;;5.07;0.70;;;16.50;99.90;;;;;;5087796;28;20398;-72
2023/07/25 07:13:50;;;;;;;4.72;0.68;;;16.60;99.90;;;;;;5069017;28;20996;-72
2023/07/25 07:16:16;;;;;;;5.43;0.90;;;16.60;99.90;;;;;;5087921;28;20748;-72
2023/07/25 07:18:41;;;;;;;4.50;0.73;;;16.50;99.90;;;;;;5087721;28;20435;-72
2023/07/25 07:21:07;;;;;;;5.32;0.88;;;16.50;99.90;;;;;;5087666;28;20430;-72
2023/07/25 07:23:33;;;;;;;5.28;0.63;;;16.50;99.90;;;;;;5070005;28;20390;-72
2023/07/25 07:25:58;;;;;;;4.13;0.57;;;16.60;99.90;;;;;;5087589;28;20428;-72
2023/07/25 07:28:24;;;;;;;4.53;0.80;;;16.60;99.90;;;;;;5087469;28;20410;-72
2023/07/25 07:30:51;;;;;;;4.90;0.60;;;16.60;99.90;;;;;;5087617;28;20413;-72
2023/07/25 07:33:18;;;;;;;3.85;0.60;;;16.60;99.90;;;;;;5087691;28;20464;-72
2023/07/25 07:35:43;;;;;;;4.70;0.50;;;16.60;99.90;;;;;;5087455;28;20402;-71
2023/07/25 07:38:09;;;;;;;5.73;0.50;;;16.70;99.90;;;;;;5087093;28;20903;-72
2023/07/25 07:40:35;;;;;;;2.53;0.50;;;16.70;99.90;;;;;;5087846;28;20398;-72
2023/07/25 07:43:01;;;;;;;5.43;0.68;;;16.70;99.90;;;;;;5087035;28;20499;-72
2023/07/25 07:45:27;;;;;;;4.43;0.75;;;16.80;99.90;;;;;;5087366;28;20394;-72
2023/07/25 07:47:53;;;;;;;4.68;0.50;;;16.90;99.90;;;;;;5087376;28;20658;-72
2023/07/25 07:50:19;;;;;;;3.60;0.60;;;17.00;99.90;;;;;;5087925;28;20469;-72
2023/07/25 07:52:45;;;;;;;5.68;0.70;;;17.00;99.90;;;;;;5087463;28;20401;-72
2023/07/25 07:55:12;;;;;;;6.20;0.80;;;16.90;99.90;;;;;;5084604;28;20897;-72
2023/07/25 07:57:45;;;;;;;4.78;0.45;;;16.90;99.90;;;;;;5084373;28;20402;-72
2023/07/25 08:00:16;;;;;;;4.18;0.70;;;17.00;99.90;;;;;;5063228;28;20903;-72
2023/07/25 08:02:42;;;;;;;6.80;0.88;;;17.10;99.90;;;;;;5087225;28;20433;-72
2023/07/25 08:05:09;;;;;;;6.25;0.90;;;17.30;99.90;;;;;;5087242;28;20424;-72
2023/07/25 08:07:35;;;;;;;4.38;0.50;;;17.50;99.90;;;;;;5087203;28;20520;-72
2023/07/25 08:10:01;;;;;;;5.40;0.70;;;17.50;99.90;;;;;;5087182;28;20455;-72
2023/07/25 08:12:26;;;;;;;5.72;0.60;;;17.40;99.90;;;;;;5087321;28;20413;-72
2023/07/25 08:14:52;;;;;;;4.57;0.50;;;17.40;99.90;;;;;;5087355;28;21056;-72
2023/07/25 08:17:18;;;;;;;4.63;0.60;;;17.40;99.90;;;;;;5089345;28;20493;-72
2023/07/25 08:19:44;;;;;;;4.97;0.80;;;17.50;99.90;;;;;;5072407;28;20841;-72
2023/07/25 08:22:10;;;;;;;6.57;0.80;;;17.50;99.90;;;;;;5090621;28;20433;-72
2023/07/25 08:24:36;;;;;;;5.93;0.73;;;17.60;99.90;;;;;;5055694;28;20919;-72
2023/07/25 08:27:02;;;;;;;4.20;0.77;;;17.80;99.90;;;;;;5090443;28;20398;-72
2023/07/25 08:29:28;;;;;;;6.32;1.23;;;18.00;99.90;;;;;;5082424;28;20406;-72
2023/07/25 08:31:54;;;;;;;5.80;0.98;;;18.20;99.90;;;;;;5090381;28;20397;-72
2023/07/25 08:34:20;;;;;;;5.32;0.73;;;18.30;99.90;;;;;;5090498;28;20449;-72
2023/07/25 08:36:46;;;;;;;4.63;0.45;;;18.40;99.90;;;;;;5090088;28;20437;-72
2023/07/25 08:39:12;;;;;;;4.70;0.80;;;18.40;99.90;;;;;;5090394;28;20413;-72
2023/07/25 08:41:43;;;;;;;6.53;0.60;;;18.20;99.90;;;;;;5090105;28;20414;-72
2023/07/25 08:44:10;;;;;;;5.10;0.57;;;18.00;99.90;;;;;;5082642;28;20471;-72
2023/07/25 08:46:36;;;;;;;4.57;0.60;;;18.00;99.90;;;;;;5090483;28;20398;-72
2023/07/25 08:49:03;;;;;;;4.03;0.40;;;18.00;99.90;;;;;;5071866;28;20802;-72
2023/07/25 08:51:32;;;;;;;5.57;0.85;;;18.10;99.90;;;;;;5090140;28;20921;-72
2023/07/25 08:54:08;;;;;;;5.00;0.40;;;18.20;99.90;;;;;;5090424;28;20839;-72
2023/07/25 08:56:35;;;;;;;2.80;0.40;;;18.30;99.90;;;;;;5085982;28;20406;-72
2023/07/25 08:59:02;;;;;;;4.82;0.50;;;18.40;99.90;;;;;;5090216;28;20457;-72
2023/07/25 09:01:28;;;;;;;3.53;0.50;;;18.50;99.90;;;;;;5089830;28;20454;-72
2023/07/25 09:03:55;;;;;;;3.97;0.40;;;18.60;99.90;;;;;;5089710;28;20432;-72
2023/07/25 09:06:21;;;;;;;3.80;0.40;;;18.80;99.90;;;;;;5089811;28;20840;-72
2023/07/25 09:08:46;;;;;;;2.63;0.27;;;18.70;99.90;;;;;;5089749;28;20802;-72
2023/07/25 09:11:14;;;;;;;2.72;0.32;;;18.70;99.90;;;;;;5090119;28;21222;-72
2023/07/25 09:13:40;;;;;;;6.00;0.50;;;18.80;99.90;;;;;;5089550;28;20406;-72
2023/07/25 09:16:05;;;;;;;4.13;0.50;;;18.90;99.90;;;;;;5089070;28;20959;-72
2023/07/25 09:18:31;;;;;;;3.22;0.68;;;19.10;99.90;;;;;;5071049;28;20429;-72
2023/07/25 09:20:58;;;;;;;3.45;0.43;;;19.20;99.90;;;;;;5089174;28;20514;-72
2023/07/25 09:23:23;;;;;;;7.22;0.60;;;19.20;99.90;;;;;;5089701;28;20428;-72
2023/07/25 09:25:49;;;;;;;3.53;0.50;;;19.10;99.90;;;;;;5089183;28;20896;-72
2023/07/25 09:28:15;;;;;;;4.05;0.50;;;19.10;99.90;;;;;;5087578;28;20402;-72
2023/07/25 09:30:49;;;;;;;2.58;0.38;;;19.10;99.90;;;;;;5084799;28;20394;-72
2023/07/25 09:33:28;;;;;;;3.90;0.60;;;19.20;99.90;;;;;;5088739;28;20953;-72
2023/07/25 09:35:54;;;;;;;5.68;0.57;;;19.40;99.90;;;;;;5089390;28;20410;-72
2023/07/25 09:38:20;;;;;;;4.93;0.80;;;19.60;99.90;;;;;;5089155;28;20440;-72
2023/07/25 09:40:46;;;;;;;3.53;0.40;;;19.60;99.90;;;;;;5089077;28;20398;-72
2023/07/25 09:43:26;;;;;;;4.13;0.50;;;19.60;99.90;;;;;;5088998;28;20406;-72
2023/07/25 09:45:52;;;;;;;2.85;0.45;;;19.60;99.90;;;;;;5082641;28;20417;-72
2023/07/25 09:48:18;;;;;;;6.18;0.60;;;19.70;99.90;;;;;;5089265;28;20503;-72
2023/07/25 09:50:44;;;;;;;4.45;0.50;;;20.20;99.90;;;;;;5088879;28;20401;-72
2023/07/25 09:53:13;;;;;;;6.25;0.60;;;20.60;99.90;;;;;;5088724;28;20402;-72
2023/07/25 09:55:39;;;;;;;2.47;0.40;;;20.60;99.20;;;;;;5089458;28;20402;-72
2023/07/25 09:58:05;;;;;;;3.13;0.37;;;20.40;99.30;;;;;;5088944;28;20398;-72
2023/07/25 10:00:31;;;;;;;4.70;0.50;;;20.20;99.80;;;;;;5088332;28;20400;-72
2023/07/25 10:03:00;;;;;;;12.32;1.73;;;20.10;99.90;;;;;;5083454;28;20439;-71
2023/07/25 10:05:28;;;;;;;7.22;0.90;;;20.40;99.90;;;;;;5070770;28;20538;-71
2023/07/25 10:07:55;;;;;;;6.72;0.70;;;20.60;99.90;;;;;;5088898;28;20398;-71
2023/07/25 10:10:21;;;;;;;4.13;0.40;;;20.50;98.80;;;;;;5088075;28;20928;-72
2023/07/25 10:12:47;;;;;;;5.15;0.63;;;20.20;99.00;;;;;;5087906;28;20430;-72
2023/07/25 10:15:15;;;;;;;3.80;0.40;;;20.00;98.90;;;;;;5088711;28;20405;-72
2023/07/25 10:17:40;;;;;;;3.72;0.70;;;19.70;98.90;;;;;;5088557;28;20395;-72
2023/07/25 10:20:07;;;;;;;4.40;0.43;;;19.60;99.50;;;;;;5087811;28;20402;-72
2023/07/25 10:22:40;;;;;;;5.57;0.80;;;19.60;99.70;;;;;;5079383;28;21000;-72
2023/07/25 10:25:27;;;;;;;4.32;0.50;;;19.60;99.90;;;;;;5069751;28;20413;-72
2023/07/25 10:28:03;;;;;;;7.07;0.60;;;19.70;99.80;;;;;;5088057;28;20398;-72
2023/07/25 10:30:31;;;;;;;4.70;0.70;;;19.90;99.90;;;;;;5088034;28;20394;-72
2023/07/25 10:33:02;;;;;;;4.77;0.50;;;20.10;99.40;;;;;;5088591;28;20460;-71
2023/07/25 10:35:50;;;;;;;4.03;0.55;;;20.10;99.20;;;;;;5083130;28;20470;-72
2023/07/25 10:38:30;;;;;;;4.95;0.80;;;20.00;99.20;;;;;;5087945;28;20968;-72
2023/07/25 10:40:58;;;;;;;6.60;0.88;;;19.90;99.20;;;;;;5087508;28;20909;-72
2023/07/25 10:43:29;;;;;;;4.60;0.60;;;19.80;99.10;;;;;;5087747;28;20779;-71
2023/07/25 10:45:58;;;;;;;4.30;0.50;;;19.70;98.70;;;;;;5070038;28;20459;-71
2023/07/25 10:48:35;;;;;;;6.85;0.60;;;19.60;98.60;;;;;;5081769;28;20398;-72
2023/07/25 10:51:06;;;;;;;4.82;0.55;;;19.60;99.10;;;;;;5087116;28;20903;-72
2023/07/25 10:53:32;;;;;;;4.97;0.50;;;19.70;99.10;;;;;;5069756;28;20409;-71
2023/07/25 10:56:04;;;;;;;3.80;0.60;;;19.90;99.00;;;;;;5081523;28;20400;-72
2023/07/25 10:58:30;;;;;;;3.65;0.70;;;20.10;98.70;;;;;;5069484;28;20410;-72
2023/07/25 11:00:57;;;;;;;2.83;0.45;;;20.30;98.30;;;;;;5087997;28;20404;-72
2023/07/25 11:03:36;;;;;;;2.78;0.70;;;20.40;98.20;;;;;;5053216;28;20487;-72
2023/07/25 11:06:07;;;;;;;2.80;0.45;;;20.70;98.70;;;;;;5069650;28;20833;-72
2023/07/25 11:08:33;;;;;;;3.60;0.90;;;21.20;97.60;;;;;;5076078;28;20905;-72
2023/07/25 11:11:03;;;;;;;5.03;0.65;;;21.60;97.60;;;;;;5086502;28;20405;-72
2023/07/25 11:13:33;;;;;;;5.65;0.60;;;22.00;97.40;;;;;;5088100;28;20763;-72
2023/07/25 11:16:01;;;;;;;4.35;0.60;;;21.90;96.20;;;;;;5082118;28;20451;-72
2023/07/25 11:18:27;;;;;;;4.10;0.50;;;21.60;95.90;;;;;;5087894;28;20741;-72
2023/07/25 11:21:02;;;;;;;4.30;0.50;;;21.20;95.80;;;;;;5086480;28;20404;-72
2023/07/25 11:23:28;;;;;;;5.55;0.60;;;21.00;96.20;;;;;;5081141;28;20406;-72
2023/07/25 11:25:55;;;;;;;5.10;0.40;;;20.80;96.10;;;;;;5083321;28;20903;-72
2023/07/25 11:28:21;;;;;;;3.78;0.35;;;20.80;96.30;;;;;;5088094;28;20394;-72
2023/07/25 11:30:47;;;;;;;6.32;0.50;;;20.70;96.10;;;;;;5087873;28;20481;-72
2023/07/25 11:33:13;;;;;;;4.20;0.60;;;20.70;95.80;;;;;;5087091;28;20477;-71
2023/07/25 11:35:38;;;;;;;3.40;0.30;;;20.60;95.30;;;;;;5087887;28;20394;-71
2023/07/25 11:38:04;;;;;;;3.10;0.30;;;20.50;95.20;;;;;;5087275;28;20397;-72
2023/07/25 11:40:31;;;;;;;4.40;0.40;;;20.50;95.10;;;;;;5069702;28;20879;-71
2023/07/25 11:42:57;;;;;;;2.53;0.30;;;20.60;94.90;;;;;;5086886;28;20438;-72
2023/07/25 11:45:24;;;;;;;3.87;0.30;;;20.90;95.00;;;;;;5081352;28;20417;-72
2023/07/25 11:47:51;;;;;;;2.70;0.30;;;21.20;95.10;;;;;;5087632;28;20408;-72
2023/07/25 11:50:19;;;;;;;3.60;0.52;;;21.50;94.50;;;;;;5087955;28;20938;-72
2023/07/25 11:52:46;;;;;;;2.97;0.35;;;21.70;94.70;;;;;;5091284;28;20409;-72
2023/07/25 11:55:13;;;;;;;2.33;0.40;;;21.90;94.20;;;;;;5091306;28;20402;-72
2023/07/25 11:57:42;;;;;;;1.45;0.30;;;21.80;93.10;;;;;;5091205;28;20413;-71
2023/07/25 12:00:11;;;;;;;3.17;0.40;;;21.70;92.60;;;;;;5091276;28;20483;-71
2023/07/25 12:02:40;;;;;;;5.40;0.40;;;21.90;93.30;;;;;;5091071;28;20426;-72
2023/07/25 12:05:08;;;;;;;2.70;0.40;;;22.40;93.80;;;;;;5091291;28;21161;-72
2023/07/25 12:07:53;;;;;;;4.65;0.50;;;22.70;91.60;;;;;;5091338;28;20401;-72
2023/07/25 12:10:32;;;;;;;4.68;0.60;;;22.90;92.20;;;;;;5093844;28;20787;-72
2023/07/25 12:13:00;;;;;;;4.22;0.40;;;23.10;91.70;;;;;;5090701;28;20413;-72
2023/07/25 12:15:46;;;;;;;3.92;0.60;;;23.00;91.40;;;;;;5090659;28;20398;-72
2023/07/25 12:18:31;;;;;;;5.18;0.68;;;22.80;92.20;;;;;;5090504;28;20413;-72
2023/07/25 12:20:59;;;;;;;6.33;0.77;;;22.50;91.60;;;;;;5060500;28;20421;-72
2023/07/25 12:23:38;;;;;;;2.42;0.50;;;22.20;91.80;;;;;;5090885;28;20398;-72
2023/07/25 12:26:05;;;;;;;2.85;0.38;;;22.00;91.60;;;;;;5090714;28;20447;-72
2023/07/25 12:28:41;;;;;;;2.57;0.30;;;22.10;92.30;;;;;;5090762;28;20402;-72
2023/07/25 12:31:07;;;;;;;2.08;0.30;;;22.40;92.70;;;;;;5090845;28;20406;-72
2023/07/25 12:33:33;;;;;;;3.07;0.60;;;22.80;91.50;;;;;;5091197;28;20417;-72
2023/07/25 12:36:00;;;;;;;2.58;0.32;;;23.20;90.70;;;;;;5090441;28;20402;-72
2023/07/25 12:38:26;;;;;;;3.65;0.30;;;23.30;90.20;;;;;;5090550;28;20402;-72
2023/07/25 12:40:51;;;;;;;2.10;0.30;;;23.40;89.60;;;;;;5090296;28;20409;-72
2023/07/25 12:43:17;;;;;;;2.50;0.20;;;23.70;86.20;;;;;;5090181;28;20421;-72